createdAt,value
2022-09-26T00:01:35.151Z,9.66
2022-09-26T00:04:07.050Z,9.62
2022-09-26T00:06:35.006Z,9.50
2022-09-26T00:09:03.012Z,9.33
2022-09-26T00:11:33.610Z,9.43
2022-09-26T00:14:08.214Z,9.32
2022-09-26T00:16:36.907Z,9.45
2022-09-26T00:19:05.468Z,9.51
2022-09-26T00:21:33.396Z,9.48
2022-09-26T00:24:02.491Z,9.52
2022-09-26T00:26:32.599Z,9.52
2022-09-26T00:29:04.471Z,9.47
2022-09-26T00:31:35.997Z,9.47
2022-09-26T00:34:04.659Z,9.50
2022-09-26T00:36:38.349Z,9.51
2022-09-26T00:39:08.436Z,9.44
2022-09-26T00:41:37.870Z,9.62
2022-09-26T00:44:39.079Z,9.66
2022-09-26T00:47:21.090Z,9.52
2022-09-26T00:49:52.005Z,9.60
2022-09-26T00:52:26.136Z,9.64
2022-09-26T00:54:57.414Z,9.65
2022-09-26T00:57:33.321Z,9.53
2022-09-26T01:00:09.669Z,9.49
2022-09-26T01:02:40.085Z,9.57
2022-09-26T01:05:09.254Z,9.45
2022-09-26T01:07:37.182Z,9.23
2022-09-26T01:10:06.752Z,9.05
2022-09-26T01:12:37.471Z,9.02
2022-09-26T01:15:07.355Z,8.83
2022-09-26T01:17:37.797Z,8.78
2022-09-26T01:20:21.476Z,8.77
2022-09-26T01:23:13.786Z,8.48
2022-09-26T01:26:14.405Z,8.33
2022-09-26T01:29:03.665Z,8.08
2022-09-26T01:31:43.013Z,7.93
2022-09-26T01:34:23.356Z,7.87
2022-09-26T01:37:05.091Z,7.91
2022-09-26T01:39:47.581Z,8.07
2022-09-26T01:42:26.309Z,8.09
2022-09-26T01:45:01.421Z,8.20
2022-09-26T01:47:36.291Z,8.21
2022-09-26T01:50:13.010Z,8.36
2022-09-26T01:52:46.522Z,8.62
2022-09-26T01:55:18.842Z,8.68
2022-09-26T01:57:53.234Z,8.71
2022-09-26T02:00:21.662Z,8.70
2022-09-26T02:02:51.446Z,8.65
2022-09-26T02:05:26.125Z,8.77
2022-09-26T02:07:59.543Z,8.77
2022-09-26T02:10:34.106Z,8.81
2022-09-26T02:13:08.136Z,8.85
2022-09-26T02:15:39.051Z,8.90
2022-09-26T02:18:15.943Z,8.97
2022-09-26T02:20:49.986Z,8.94
2022-09-26T02:23:18.272Z,9.06
2022-09-26T02:25:46.024Z,9.10
2022-09-26T02:28:14.269Z,9.07
2022-09-26T02:30:45.255Z,9.06
2022-09-26T02:33:14.517Z,9.01
2022-09-26T02:35:56.910Z,9.03
2022-09-26T02:38:29.152Z,9.02
2022-09-26T02:41:02.991Z,9.02
2022-09-26T02:43:43.998Z,8.97
2022-09-26T02:46:29.517Z,8.98
2022-09-26T02:49:15.243Z,9.01
2022-09-26T02:51:59.695Z,9.04
2022-09-26T02:54:37.278Z,8.98
2022-09-26T02:57:18.455Z,8.96
2022-09-26T02:59:57.089Z,9.02
2022-09-26T03:02:31.032Z,9.03
2022-09-26T03:05:06.129Z,9.02
2022-09-26T03:07:40.925Z,9.00
2022-09-26T03:10:10.830Z,9.02
2022-09-26T03:12:40.240Z,9.01
2022-09-26T03:15:11.807Z,8.85
2022-09-26T03:17:46.021Z,8.73
2022-09-26T03:20:18.005Z,8.71
2022-09-26T03:22:47.005Z,8.67
2022-09-26T03:25:18.460Z,8.72
2022-09-26T03:27:47.127Z,8.72
2022-09-26T03:30:17.082Z,8.65
2022-09-26T03:32:44.953Z,8.62
2022-09-26T03:35:12.697Z,8.62
2022-09-26T03:37:42.590Z,8.58
2022-09-26T03:40:13.276Z,8.55
2022-09-26T03:42:41.624Z,8.55
2022-09-26T03:45:11.317Z,8.58
2022-09-26T03:47:39.681Z,8.63
2022-09-26T03:50:09.015Z,8.64
2022-09-26T03:52:37.397Z,8.64
2022-09-26T03:55:07.241Z,8.60
2022-09-26T03:57:35.519Z,8.64
2022-09-26T04:00:07.542Z,8.70
2022-09-26T04:02:35.945Z,8.78
2022-09-26T04:05:04.304Z,8.77
2022-09-26T04:07:32.263Z,8.74
2022-09-26T04:09:59.994Z,8.80
2022-09-26T04:12:29.461Z,8.77
2022-09-26T04:14:57.355Z,8.75
2022-09-26T04:17:25.098Z,8.84
2022-09-26T04:19:53.050Z,8.77
2022-09-26T04:22:21.130Z,8.75
2022-09-26T04:24:48.862Z,8.68
2022-09-26T04:27:16.864Z,8.56
2022-09-26T04:29:46.218Z,8.42
2022-09-26T04:32:13.959Z,8.45
2022-09-26T04:34:42.072Z,8.46
2022-09-26T04:37:10.110Z,8.29
2022-09-26T04:39:37.910Z,8.30
2022-09-26T04:42:06.116Z,8.30
2022-09-26T04:44:34.085Z,8.14
2022-09-26T04:47:03.121Z,7.98
2022-09-26T04:49:31.107Z,7.99
2022-09-26T04:51:58.942Z,8.10
2022-09-26T04:54:26.737Z,8.20
2022-09-26T04:56:54.815Z,8.28
2022-09-26T04:59:22.702Z,8.32
2022-09-26T05:01:50.638Z,8.44
2022-09-26T05:04:22.860Z,8.54
2022-09-26T05:06:57.689Z,8.58
2022-09-26T05:09:26.004Z,8.73
2022-09-26T05:11:53.869Z,8.74
2022-09-26T05:14:21.814Z,8.70
2022-09-26T05:16:50.320Z,8.61
2022-09-26T05:19:18.696Z,8.58
2022-09-26T05:21:47.938Z,8.57
2022-09-26T05:24:33.603Z,8.60
2022-09-26T05:27:02.514Z,8.64
2022-09-26T05:29:30.507Z,8.29
2022-09-26T05:31:59.803Z,8.25
2022-09-26T05:34:27.941Z,8.19
2022-09-26T05:36:57.149Z,8.08
2022-09-26T05:39:42.955Z,8.11
2022-09-26T05:42:11.081Z,8.17
2022-09-26T05:44:39.691Z,8.18
2022-09-26T05:47:08.569Z,8.16
2022-09-26T05:49:36.821Z,8.10
2022-09-26T05:52:06.165Z,8.08
2022-09-26T05:54:33.935Z,8.16
2022-09-26T05:57:02.125Z,8.24
2022-09-26T05:59:30.182Z,8.32
2022-09-26T06:01:58.737Z,8.40
2022-09-26T06:04:26.940Z,8.50
2022-09-26T06:06:54.807Z,8.58
2022-09-26T06:09:24.046Z,8.66
2022-09-26T06:11:51.873Z,8.72
2022-09-26T06:14:19.736Z,8.81
2022-09-26T06:16:49.986Z,8.91
2022-09-26T06:19:22.695Z,9.02
2022-09-26T06:21:51.086Z,9.15
2022-09-26T06:24:20.402Z,9.29
2022-09-26T06:26:49.510Z,9.39
2022-09-26T06:29:18.595Z,9.46
2022-09-26T06:31:46.607Z,9.44
2022-09-26T06:34:17.121Z,9.43
2022-09-26T06:36:46.836Z,9.49
2022-09-26T06:39:14.919Z,9.42
2022-09-26T06:41:43.552Z,9.41
2022-09-26T06:44:13.001Z,9.47
2022-09-26T06:46:40.936Z,9.45
2022-09-26T06:49:09.124Z,9.49
2022-09-26T06:51:38.013Z,9.56
2022-09-26T06:54:05.866Z,9.62
2022-09-26T06:56:34.243Z,9.71
2022-09-26T06:59:02.413Z,9.83
2022-09-26T07:01:32.461Z,9.84
2022-09-26T07:04:00.286Z,9.92
2022-09-26T07:06:28.125Z,10.01
2022-09-26T07:09:07.413Z,10.12
2022-09-26T07:12:02.708Z,10.26
2022-09-26T07:14:25.902Z,10.36
2022-09-26T07:16:55.245Z,10.41
2022-09-26T07:19:23.674Z,10.40
2022-09-26T07:21:51.674Z,10.39
2022-09-26T07:24:19.580Z,10.46
2022-09-26T07:26:47.585Z,10.53
2022-09-26T07:29:15.737Z,10.60
2022-09-26T07:31:43.668Z,10.68
2022-09-26T07:34:18.159Z,10.72
2022-09-26T07:36:47.443Z,10.82
2022-09-26T07:39:15.735Z,10.71
2022-09-26T07:41:45.828Z,10.88
2022-09-26T07:47:20.176Z,10.84
2022-09-26T07:50:07.137Z,10.80
2022-09-26T07:52:35.741Z,10.82
2022-09-26T07:55:03.918Z,10.77
2022-09-26T07:57:35.429Z,10.79
2022-09-26T08:00:05.979Z,10.82
2022-09-26T08:02:35.706Z,10.84
2022-09-26T08:05:06.547Z,10.91
2022-09-26T08:07:35.603Z,10.98
2022-09-26T08:10:05.505Z,11.08
2022-09-26T08:12:37.095Z,11.08
2022-09-26T08:15:06.968Z,11.14
2022-09-26T08:17:36.169Z,11.12
2022-09-26T08:20:06.211Z,11.09
2022-09-26T08:22:34.544Z,11.08
2022-09-26T08:25:03.142Z,11.01
2022-09-26T08:27:33.542Z,10.96
2022-09-26T08:30:04.205Z,10.98
2022-09-26T08:32:33.749Z,10.63
2022-09-26T08:35:01.840Z,10.64
2022-09-26T08:37:31.311Z,10.67
2022-09-26T08:40:00.706Z,10.58
2022-09-26T08:42:41.768Z,10.49
2022-09-26T08:45:49.396Z,10.45
2022-09-26T08:48:31.671Z,10.47
2022-09-26T08:51:04.436Z,10.44
2022-09-26T08:53:36.627Z,10.43
2022-09-26T08:56:12.341Z,10.50
2022-09-26T08:58:44.031Z,10.61
2022-09-26T09:01:15.859Z,10.66
2022-09-26T09:03:51.830Z,10.73
2022-09-26T09:06:20.433Z,10.80
2022-09-26T09:08:52.126Z,10.87
2022-09-26T09:11:35.366Z,10.93
2022-09-26T09:14:18.177Z,11.01
2022-09-26T09:16:59.174Z,11.04
2022-09-26T09:19:38.948Z,11.06
2022-09-26T09:22:28.299Z,11.13
2022-09-26T09:25:01.182Z,11.15
2022-09-26T09:27:52.748Z,11.23
2022-09-26T09:30:23.465Z,11.28
2022-09-26T09:32:57.599Z,11.32
2022-09-26T09:35:41.214Z,11.39
2022-09-26T09:38:14.951Z,11.42
2022-09-26T09:40:50.920Z,11.47
2022-09-26T09:43:28.037Z,11.49
2022-09-26T09:46:02.576Z,11.53
2022-09-26T09:48:31.279Z,11.48
2022-09-26T09:51:19.188Z,11.55
2022-09-26T09:54:02.991Z,11.63
2022-09-26T09:56:43.464Z,11.66
2022-09-26T09:59:23.636Z,11.70
2022-09-26T10:01:59.892Z,11.80
2022-09-26T10:04:36.280Z,11.86
2022-09-26T10:07:05.501Z,11.90
2022-09-26T10:09:40.719Z,11.98
2022-09-26T10:12:16.607Z,11.97
2022-09-26T10:14:51.080Z,11.94
2022-09-26T10:17:21.603Z,11.98
2022-09-26T10:19:58.646Z,12.00
2022-09-26T10:22:32.687Z,12.08
2022-09-26T10:25:03.167Z,12.18
2022-09-26T10:27:40.580Z,12.19
2022-09-26T10:30:26.184Z,12.30
2022-09-26T10:32:56.986Z,12.28
2022-09-26T10:35:28.706Z,12.25
2022-09-26T10:38:01.659Z,12.28
2022-09-26T10:40:46.176Z,12.24
2022-09-26T10:43:30.454Z,12.23
2022-09-26T10:46:07.468Z,12.39
2022-09-26T10:48:42.858Z,12.52
2022-09-26T10:51:11.790Z,12.63
2022-09-26T10:53:42.830Z,12.69
2022-09-26T10:56:14.718Z,12.80
2022-09-26T10:58:47.041Z,12.85
2022-09-26T11:01:24.125Z,13.06
2022-09-26T11:03:56.825Z,13.20
2022-09-26T11:06:31.689Z,13.23
2022-09-26T11:09:03.376Z,13.34
2022-09-26T11:11:35.169Z,13.32
2022-09-26T11:14:07.498Z,13.44
2022-09-26T11:16:41.354Z,13.68
2022-09-26T11:19:19.652Z,13.79
2022-09-26T11:21:52.482Z,13.96
2022-09-26T11:24:28.318Z,14.03
2022-09-26T11:27:11.412Z,14.16
2022-09-26T11:29:53.232Z,14.42
2022-09-26T11:32:28.137Z,14.49
2022-09-26T11:35:02.421Z,14.76
2022-09-26T11:37:43.326Z,14.87
2022-09-26T11:40:24.208Z,14.80
2022-09-26T11:43:15.256Z,14.71
2022-09-26T11:46:11.025Z,14.65
2022-09-26T11:48:55.120Z,14.64
2022-09-26T11:51:40.338Z,14.73
2022-09-26T11:54:23.643Z,14.95
2022-09-26T11:57:00.969Z,15.54
2022-09-26T11:59:43.317Z,15.81
2022-09-26T12:02:32.959Z,15.95
2022-09-26T12:05:17.518Z,15.96
2022-09-26T12:07:53.250Z,15.42
2022-09-26T12:10:35.045Z,15.29
2022-09-26T12:13:19.041Z,15.89
2022-09-26T12:15:56.230Z,16.06
2022-09-26T12:18:34.542Z,15.82
2022-09-26T12:21:18.471Z,16.12
2022-09-26T12:23:52.802Z,16.80
2022-09-26T12:26:27.622Z,17.18
2022-09-26T12:29:16.739Z,17.39
2022-09-26T12:32:15.693Z,17.39
2022-09-26T12:35:01.120Z,17.63
2022-09-26T12:37:45.706Z,17.90
2022-09-26T12:40:29.142Z,16.44
2022-09-26T12:43:22.948Z,16.22
2022-09-26T12:46:04.433Z,16.38
2022-09-26T12:48:45.468Z,16.32
2022-09-26T12:51:23.267Z,16.51
2022-09-26T12:54:20.325Z,16.73
2022-09-26T12:56:54.579Z,16.63
2022-09-26T12:59:53.424Z,16.78
2022-09-26T13:02:45.917Z,16.88
2022-09-26T13:05:19.608Z,16.74
2022-09-26T13:07:57.258Z,16.86
2022-09-26T13:10:41.930Z,16.89
2022-09-26T13:13:39.655Z,16.95
2022-09-26T13:16:25.058Z,16.38
2022-09-26T13:19:01.375Z,16.80
2022-09-26T14:04:19.758Z,16.09
2022-09-26T14:07:28.174Z,16.18
2022-09-26T14:10:03.678Z,16.34
2022-09-26T14:12:34.991Z,16.28
2022-09-26T14:15:22.640Z,16.14
2022-09-26T14:18:23.638Z,16.07
2022-09-26T14:21:07.553Z,16.19
2022-09-26T14:23:38.835Z,16.31
2022-09-26T14:26:15.421Z,16.24
2022-09-26T14:28:51.194Z,16.25
2022-09-26T14:31:39.098Z,16.32
2022-09-26T14:34:22.889Z,16.37
2022-09-26T14:36:53.733Z,16.38
2022-09-26T14:39:31.845Z,16.32
2022-09-26T14:42:07.665Z,16.23
2022-09-26T14:44:37.462Z,16.24
2022-09-26T14:47:08.922Z,16.25
2022-09-26T14:49:37.068Z,16.18
2022-09-26T14:52:15.530Z,16.17
2022-09-26T14:54:43.813Z,16.23
2022-09-26T14:57:21.367Z,16.21
2022-09-26T14:59:49.653Z,16.56
2022-09-26T15:02:31.243Z,16.64
2022-09-26T15:05:02.195Z,16.79
2022-09-26T15:07:35.075Z,17.23
2022-09-26T15:10:06.867Z,17.47
2022-09-26T15:12:40.342Z,17.49
2022-09-26T15:15:24.480Z,17.10
2022-09-26T15:17:57.550Z,16.83
2022-09-26T15:20:36.430Z,16.57
2022-09-26T15:23:19.013Z,16.36
2022-09-26T15:25:47.682Z,16.17
2022-09-26T15:28:15.504Z,15.92
2022-09-26T15:30:47.010Z,15.77
2022-09-26T15:33:18.647Z,15.58
2022-09-26T15:35:54.645Z,15.46
2022-09-26T15:38:24.983Z,15.37
2022-09-26T15:41:04.195Z,15.30
2022-09-26T15:43:35.223Z,15.25
2022-09-26T15:46:08.997Z,15.18
2022-09-26T15:48:43.862Z,15.10
2022-09-26T15:51:19.079Z,14.96
2022-09-26T15:53:54.135Z,14.88
2022-09-26T15:56:27.510Z,14.84
2022-09-26T15:58:59.009Z,14.68
2022-09-26T16:01:29.861Z,14.53
2022-09-26T16:04:01.186Z,14.49
2022-09-26T16:06:34.878Z,14.29
2022-09-26T16:09:10.069Z,14.27
2022-09-26T16:11:47.561Z,14.29
2022-09-26T16:14:26.711Z,14.24
2022-09-26T16:16:56.762Z,14.05
2022-09-26T16:19:31.326Z,14.03
2022-09-26T16:21:59.090Z,13.98
2022-09-26T16:24:34.413Z,13.95
2022-09-26T16:27:02.189Z,13.91
2022-09-26T16:29:34.051Z,13.77
2022-09-26T16:32:02.641Z,13.71
2022-09-26T16:34:30.893Z,13.68
2022-09-26T16:36:59.907Z,13.55
2022-09-26T16:39:29.494Z,13.43
2022-09-26T16:42:03.089Z,13.44
2022-09-26T16:44:36.366Z,13.45
2022-09-26T16:47:09.017Z,13.48
2022-09-26T16:49:46.104Z,13.47
2022-09-26T16:52:26.543Z,13.47
2022-09-26T16:54:56.009Z,13.43
2022-09-26T16:57:27.862Z,13.45
2022-09-26T17:00:19.597Z,13.36
2022-09-26T17:02:47.628Z,13.41
2022-09-26T17:05:18.718Z,13.22
2022-09-26T17:07:48.144Z,13.21
2022-09-26T17:10:16.998Z,13.14
2022-09-26T17:12:50.699Z,13.13
2022-09-26T17:15:25.143Z,12.98
2022-09-26T17:17:54.231Z,12.96
2022-09-26T17:20:23.501Z,12.92
2022-09-26T17:22:51.413Z,12.86
2022-09-26T17:25:19.745Z,12.81
2022-09-26T17:27:53.569Z,12.58
2022-09-26T17:30:21.518Z,12.39
2022-09-26T17:32:54.243Z,12.40
2022-09-26T17:35:26.278Z,12.20
2022-09-26T17:37:54.713Z,11.98
2022-09-26T17:40:24.923Z,11.81
2022-09-26T17:42:56.462Z,11.69
2022-09-26T17:45:28.742Z,11.66
2022-09-26T17:47:59.125Z,11.68
2022-09-26T17:50:29.895Z,11.73
2022-09-26T17:52:58.862Z,11.61
2022-09-26T17:55:27.050Z,11.52
2022-09-26T17:57:56.843Z,11.54
2022-09-26T18:00:25.541Z,11.39
2022-09-26T18:03:00.438Z,11.40
2022-09-26T18:05:32.305Z,11.37
2022-09-26T18:08:05.221Z,11.32
2022-09-26T18:10:35.642Z,11.14
2022-09-26T18:13:13.010Z,11.03
2022-09-26T18:15:42.053Z,10.88
2022-09-26T18:18:13.963Z,10.86
2022-09-26T18:20:42.126Z,10.87
2022-09-26T18:23:15.768Z,10.69
2022-09-26T18:25:47.058Z,10.69
2022-09-26T18:28:20.411Z,10.68
2022-09-26T18:30:54.363Z,10.65
2022-09-26T18:33:27.638Z,10.54
2022-09-26T18:35:55.808Z,10.53
2022-09-26T18:38:23.516Z,10.50
2022-09-26T18:40:55.428Z,10.57
2022-09-26T18:43:25.665Z,10.62
2022-09-26T18:45:53.657Z,10.60
2022-09-26T18:48:25.076Z,10.44
2022-09-26T18:50:54.068Z,10.47
2022-09-26T18:53:23.685Z,10.32
2022-09-26T18:56:09.198Z,10.33
2022-09-26T18:58:39.168Z,10.32
2022-09-26T19:01:12.292Z,10.22
2022-09-26T19:03:44.152Z,10.27
2022-09-26T19:06:16.237Z,10.28
2022-09-26T19:08:46.430Z,10.46
2022-09-26T19:11:16.739Z,10.45
2022-09-26T19:13:47.835Z,10.61
2022-09-26T19:16:16.810Z,10.67
2022-09-26T19:18:45.322Z,10.61
2022-09-26T19:21:21.316Z,10.40
2022-09-26T19:23:50.688Z,10.27
2022-09-26T19:26:25.966Z,10.11
2022-09-26T19:28:57.570Z,9.94
2022-09-26T19:31:25.944Z,9.89
2022-09-26T19:33:55.179Z,9.72
2022-09-26T19:36:23.516Z,9.71
2022-09-26T19:38:51.531Z,9.68
2022-09-26T19:41:19.681Z,9.62
2022-09-26T19:43:47.690Z,9.60
2022-09-26T19:46:27.275Z,9.61
2022-09-26T19:48:55.452Z,9.56
2022-09-26T19:51:24.598Z,9.39
2022-09-26T19:53:52.935Z,9.52
2022-09-26T19:56:20.859Z,9.47
2022-09-26T19:58:50.333Z,9.32
2022-09-26T20:01:22.947Z,9.27
2022-09-26T20:03:51.524Z,9.36
2022-09-26T20:06:22.049Z,9.37
2022-09-26T20:08:51.165Z,9.37
2022-09-26T20:11:19.649Z,9.38
2022-09-26T20:14:05.807Z,9.33
2022-09-26T20:16:38.638Z,9.33
2022-09-26T20:19:07.532Z,9.32
2022-09-26T20:21:35.529Z,9.39
2022-09-26T20:24:03.649Z,9.38
2022-09-26T20:26:33.562Z,9.30
2022-09-26T20:29:01.559Z,9.37
2022-09-26T20:31:30.273Z,9.41
2022-09-26T20:34:00.068Z,9.49
2022-09-26T20:36:31.961Z,9.59
2022-09-26T20:39:03.308Z,9.73
2022-09-26T20:41:33.919Z,9.74
2022-09-26T20:44:05.929Z,9.72
2022-09-26T20:46:37.555Z,9.78
2022-09-26T20:49:09.464Z,9.85
2022-09-26T20:51:37.370Z,9.88
2022-09-26T20:54:06.591Z,9.67
2022-09-26T20:56:34.515Z,9.73
2022-09-26T20:59:02.318Z,9.69
2022-09-26T21:01:30.247Z,9.77
2022-09-26T21:03:58.604Z,9.88
2022-09-26T21:06:34.154Z,10.01
2022-09-26T21:09:03.390Z,10.10
2022-09-26T21:11:31.305Z,10.18
2022-09-26T21:13:59.166Z,10.13
2022-09-26T21:16:27.188Z,10.12
2022-09-26T21:18:55.468Z,10.06
2022-09-26T21:21:25.284Z,10.12
2022-09-26T21:23:55.301Z,10.13
2022-09-26T21:26:25.158Z,9.93
2022-09-26T21:28:54.409Z,9.86
2022-09-26T21:31:26.820Z,9.72
2022-09-26T21:33:56.284Z,9.65
2022-09-26T21:36:25.937Z,9.60
2022-09-26T21:38:57.447Z,9.33
2022-09-26T21:41:25.673Z,9.30
2022-09-26T21:43:59.160Z,9.18
2022-09-26T21:46:27.345Z,9.27
2022-09-26T21:48:55.971Z,9.08
2022-09-26T21:51:26.049Z,9.02
2022-09-26T21:54:01.566Z,8.98
2022-09-26T21:56:33.690Z,9.08
2022-09-26T21:59:02.205Z,9.06
2022-09-26T22:01:29.979Z,8.89
2022-09-26T22:03:58.445Z,8.82
2022-09-26T22:06:27.053Z,8.91
2022-09-26T22:08:56.104Z,8.86
2022-09-26T22:11:23.937Z,8.80
2022-09-26T22:13:52.805Z,8.86
2022-09-26T22:16:20.540Z,8.83
2022-09-26T22:18:48.262Z,8.77
2022-09-26T22:21:16.415Z,8.67
2022-09-26T22:23:44.141Z,8.73
2022-09-26T22:26:13.219Z,8.53
2022-09-26T22:28:41.292Z,8.45
2022-09-26T22:31:09.113Z,8.48
2022-09-26T22:33:37.041Z,8.51
2022-09-26T22:36:06.206Z,8.59
2022-09-26T22:38:34.882Z,8.73
2022-09-26T22:41:04.988Z,8.79
2022-09-26T22:43:35.660Z,8.79
2022-09-26T22:46:06.376Z,8.68
2022-09-26T22:48:36.134Z,8.76
2022-09-26T22:51:05.783Z,8.72
2022-09-26T22:53:36.688Z,8.72
2022-09-26T22:56:05.961Z,8.66
2022-09-26T22:58:38.530Z,8.57
2022-09-26T23:01:09.117Z,8.44
2022-09-26T23:03:37.590Z,8.56
2022-09-26T23:06:06.430Z,8.48
2022-09-26T23:08:35.133Z,8.31
2022-09-26T23:11:04.020Z,8.25
2022-09-26T23:13:33.066Z,8.16
2022-09-26T23:16:06.177Z,8.07
2022-09-26T23:18:34.736Z,7.93
2022-09-26T23:21:07.406Z,7.94
2022-09-26T23:23:36.129Z,7.78
2022-09-26T23:26:05.549Z,7.88
2022-09-26T23:28:34.368Z,7.88
2022-09-26T23:31:07.867Z,7.79
2022-09-26T23:33:36.869Z,7.73
2022-09-26T23:36:06.382Z,7.71
2022-09-26T23:38:35.388Z,7.77
2022-09-26T23:41:03.479Z,7.69
2022-09-26T23:43:31.263Z,7.72
2022-09-26T23:45:59.048Z,7.77
2022-09-26T23:48:28.817Z,7.74
2022-09-26T23:50:57.610Z,7.72
2022-09-26T23:53:25.750Z,7.83
2022-09-26T23:55:53.800Z,7.83
2022-09-26T23:58:21.853Z,7.91
